createdAt,value
2022-08-02T00:00:34.156Z,94.00
2022-08-02T00:03:01.269Z,94.00
2022-08-02T00:05:28.321Z,94.10
2022-08-02T00:07:55.371Z,94.00
2022-08-02T00:10:22.454Z,93.90
2022-08-02T00:12:49.511Z,93.80
2022-08-02T00:15:16.678Z,94.00
2022-08-02T00:17:44.668Z,94.00
2022-08-02T00:20:13.776Z,94.00
2022-08-02T00:22:40.995Z,94.00
2022-08-02T00:25:08.315Z,94.10
2022-08-02T00:27:35.467Z,94.20
2022-08-02T00:30:02.679Z,94.40
2022-08-02T00:32:29.665Z,94.80
2022-08-02T00:34:56.779Z,94.70
2022-08-02T00:37:23.821Z,94.70
2022-08-02T00:39:50.903Z,94.80
2022-08-02T00:42:18.260Z,94.70
2022-08-02T00:44:45.504Z,94.80
2022-08-02T00:47:14.996Z,95.00
2022-08-02T00:49:47.104Z,95.20
2022-08-02T00:52:14.642Z,95.30
2022-08-02T00:54:42.201Z,95.70
2022-08-02T00:57:09.349Z,95.60
2022-08-02T00:59:39.058Z,95.70
2022-08-02T01:02:06.101Z,95.60
2022-08-02T01:04:33.151Z,95.60
2022-08-02T01:07:12.094Z,95.90
2022-08-02T01:09:42.310Z,96.20
2022-08-02T01:12:09.879Z,96.40
2022-08-02T01:14:37.697Z,96.60
2022-08-02T01:17:15.618Z,96.60
2022-08-02T01:20:16.884Z,96.70
2022-08-02T01:23:11.158Z,96.70
2022-08-02T01:25:53.512Z,97.00
2022-08-02T01:28:39.194Z,97.10
2022-08-02T01:31:09.322Z,97.20
2022-08-02T01:33:41.937Z,97.30
2022-08-02T01:36:13.345Z,97.50
2022-08-02T01:38:45.043Z,97.60
2022-08-02T01:41:25.118Z,97.80
2022-08-02T01:43:58.402Z,98.00
2022-08-02T01:46:29.246Z,98.10
2022-08-02T01:48:58.375Z,98.10
2022-08-02T01:51:45.718Z,98.30
2022-08-02T01:54:17.650Z,98.20
2022-08-02T01:56:46.055Z,98.20
2022-08-02T01:59:16.938Z,98.10
2022-08-02T02:01:46.219Z,98.20
2022-08-02T02:04:14.488Z,98.10
2022-08-02T02:06:44.868Z,98.10
2022-08-02T02:09:14.538Z,98.00
2022-08-02T02:12:06.257Z,97.90
2022-08-02T02:14:33.412Z,97.90
2022-08-02T02:17:02.875Z,98.10
2022-08-02T02:19:30.942Z,98.10
2022-08-02T02:21:58.219Z,98.10
2022-08-02T02:24:25.248Z,98.10
2022-08-02T02:26:52.942Z,98.10
2022-08-02T02:29:24.883Z,98.20
2022-08-02T02:31:54.702Z,98.20
2022-08-02T02:34:27.011Z,98.20
2022-08-02T02:36:56.705Z,98.20
2022-08-02T02:39:26.593Z,98.30
2022-08-02T02:41:56.809Z,98.40
2022-08-02T02:44:25.068Z,98.40
2022-08-02T02:46:54.855Z,98.50
2022-08-02T02:49:23.134Z,98.70
2022-08-02T02:51:51.859Z,98.70
2022-08-02T02:54:33.212Z,98.70
2022-08-02T02:57:02.727Z,98.80
2022-08-02T02:59:30.496Z,98.90
2022-08-02T03:01:58.876Z,98.80
2022-08-02T03:04:56.143Z,98.90
2022-08-02T03:07:15.744Z,98.90
2022-08-02T03:09:42.764Z,98.90
2022-08-02T03:12:10.868Z,99.10
2022-08-02T03:14:44.562Z,99.10
2022-08-02T03:17:16.764Z,99.10
2022-08-02T03:19:44.757Z,99.20
2022-08-02T03:22:12.280Z,99.50
2022-08-02T03:24:39.671Z,99.60
2022-08-02T03:27:06.656Z,99.70
2022-08-02T03:29:41.837Z,99.80
2022-08-02T03:32:09.043Z,99.90
2022-08-02T03:34:36.349Z,99.90
2022-08-02T03:37:04.269Z,99.90
2022-08-02T03:39:32.540Z,99.90
2022-08-02T03:41:59.662Z,99.90
2022-08-02T03:44:27.105Z,99.90
2022-08-02T03:46:55.087Z,99.90
2022-08-02T03:49:22.583Z,99.90
2022-08-02T03:51:49.921Z,99.90
2022-08-02T03:54:18.656Z,99.90
2022-08-02T03:56:46.141Z,99.90
2022-08-02T03:59:15.071Z,99.90
2022-08-02T04:01:42.973Z,99.90
2022-08-02T04:04:10.219Z,99.90
2022-08-02T04:06:40.180Z,99.90
2022-08-02T04:09:09.856Z,99.90
2022-08-02T04:11:38.102Z,99.90
2022-08-02T04:14:09.329Z,99.90
2022-08-02T04:16:40.613Z,99.90
2022-08-02T04:19:15.128Z,99.90
2022-08-02T04:21:51.535Z,99.90
2022-08-02T04:24:27.871Z,99.90
2022-08-02T04:27:01.114Z,99.90
2022-08-02T04:29:35.477Z,99.90
2022-08-02T04:32:05.103Z,99.90
2022-08-02T04:34:32.093Z,99.90
2022-08-02T04:37:00.341Z,99.90
2022-08-02T04:39:28.047Z,99.90
2022-08-02T04:41:57.803Z,99.90
2022-08-02T04:44:25.401Z,99.90
2022-08-02T04:46:52.910Z,99.90
2022-08-02T04:49:19.977Z,99.90
2022-08-02T04:51:47.528Z,99.90
2022-08-02T04:54:14.609Z,99.90
2022-08-02T04:56:41.697Z,99.90
2022-08-02T04:59:09.214Z,99.90
2022-08-02T05:01:36.579Z,99.90
2022-08-02T05:04:04.236Z,99.90
2022-08-02T05:06:31.824Z,99.90
2022-08-02T05:08:58.906Z,99.90
2022-08-02T05:11:36.471Z,99.90
2022-08-02T05:14:05.490Z,99.90
2022-08-02T05:16:33.098Z,99.90
2022-08-02T05:19:02.037Z,99.90
2022-08-02T05:21:29.137Z,99.90
2022-08-02T05:23:56.099Z,99.90
2022-08-02T05:26:23.122Z,99.90
2022-08-02T05:28:50.194Z,99.90
2022-08-02T05:31:17.143Z,99.90
2022-08-02T05:33:44.170Z,99.90
2022-08-02T05:36:11.133Z,99.90
2022-08-02T05:38:38.288Z,99.90
2022-08-02T05:41:06.147Z,99.90
2022-08-02T05:43:33.621Z,99.90
2022-08-02T05:46:00.623Z,99.90
2022-08-02T05:48:31.642Z,99.90
2022-08-02T05:51:48.512Z,99.90
2022-08-02T05:54:52.690Z,99.90
2022-08-02T05:57:43.574Z,99.90
2022-08-02T06:00:15.452Z,99.90
2022-08-02T06:03:06.665Z,99.90
2022-08-02T06:05:39.691Z,99.90
2022-08-02T06:08:10.766Z,99.90
2022-08-02T06:10:40.504Z,99.90
2022-08-02T06:13:14.222Z,99.90
2022-08-02T06:15:52.931Z,99.90
2022-08-02T06:18:28.363Z,99.90
2022-08-02T06:22:32.820Z,99.90
2022-08-02T06:23:57.371Z,99.90
2022-08-02T06:26:26.519Z,99.90
2022-08-02T06:28:54.820Z,99.90
2022-08-02T06:31:21.892Z,99.90
2022-08-02T06:33:48.913Z,99.90
2022-08-02T06:36:37.845Z,99.90
2022-08-02T06:39:28.616Z,99.90
2022-08-02T06:42:01.339Z,99.90
2022-08-02T06:47:16.051Z,99.90
2022-08-02T06:49:51.859Z,99.90
2022-08-02T06:52:31.851Z,99.90
2022-08-02T06:55:01.073Z,99.90
2022-08-02T06:57:28.882Z,99.90
2022-08-02T06:59:56.496Z,99.90
2022-08-02T07:02:23.981Z,99.90
2022-08-02T07:04:51.157Z,99.90
2022-08-02T07:07:18.242Z,99.90
2022-08-02T07:10:00.684Z,99.90
2022-08-02T07:12:33.476Z,99.90
2022-08-02T07:15:02.459Z,99.90
2022-08-02T07:17:30.331Z,99.90
2022-08-02T07:19:58.371Z,99.90
2022-08-02T07:22:27.427Z,99.90
2022-08-02T07:24:56.759Z,99.90
2022-08-02T07:27:24.769Z,99.90
2022-08-02T07:29:52.380Z,99.90
2022-08-02T07:32:21.422Z,99.90
2022-08-02T07:34:52.774Z,99.90
2022-08-02T07:37:53.630Z,99.90
2022-08-02T07:40:14.601Z,99.90
2022-08-02T07:42:43.298Z,99.90
2022-08-02T07:45:11.609Z,99.90
2022-08-02T07:47:42.920Z,99.90
2022-08-02T07:50:11.991Z,99.90
2022-08-02T07:52:40.040Z,99.90
2022-08-02T07:55:07.746Z,99.90
2022-08-02T07:57:34.896Z,99.90
2022-08-02T08:00:01.943Z,99.90
2022-08-02T08:02:29.023Z,99.90
2022-08-02T08:04:55.973Z,99.80
2022-08-02T08:07:23.454Z,99.70
2022-08-02T08:09:56.248Z,99.50
2022-08-02T08:12:23.939Z,98.90
2022-08-02T08:14:50.987Z,98.40
2022-08-02T08:17:18.137Z,98.40
2022-08-02T08:19:51.663Z,97.40
2022-08-02T08:22:24.244Z,97.70
2022-08-02T08:24:51.191Z,97.20
2022-08-02T08:27:19.814Z,96.80
2022-08-02T08:29:47.082Z,96.70
2022-08-02T08:32:17.532Z,96.50
2022-08-02T08:34:49.026Z,97.10
2022-08-02T08:37:18.557Z,96.70
2022-08-02T08:39:57.389Z,96.20
2022-08-02T08:42:29.222Z,96.10
2022-08-02T08:44:57.220Z,95.50
2022-08-02T08:47:41.569Z,95.00
2022-08-02T08:50:22.722Z,94.80
2022-08-02T08:53:07.256Z,94.90
2022-08-02T08:55:36.107Z,94.40
2022-08-02T08:58:05.582Z,94.40
2022-08-02T09:00:34.773Z,93.60
2022-08-02T09:03:07.148Z,93.20
2022-08-02T09:05:39.093Z,93.40
2022-08-02T09:08:06.539Z,93.30
2022-08-02T09:10:47.102Z,92.60
2022-08-02T09:13:44.826Z,92.60
2022-08-02T09:16:14.747Z,92.30
2022-08-02T09:18:47.189Z,92.50
2022-08-02T09:21:17.023Z,92.20
2022-08-02T09:23:47.645Z,91.90
2022-08-02T09:26:17.323Z,91.80
2022-08-02T09:28:46.741Z,92.00
2022-08-02T09:31:22.257Z,92.10
2022-08-02T09:33:57.860Z,92.00
2022-08-02T09:36:26.176Z,92.20
2022-08-02T09:39:05.008Z,92.70
2022-08-02T09:41:34.678Z,92.60
2022-08-02T09:44:06.536Z,92.80
2022-08-02T09:46:38.539Z,92.80
2022-08-02T09:49:13.937Z,92.60
2022-08-02T09:51:52.907Z,92.50
2022-08-02T09:54:23.979Z,92.50
2022-08-02T09:57:01.846Z,92.50
2022-08-02T09:59:31.347Z,92.70
2022-08-02T10:02:02.222Z,92.50
2022-08-02T10:04:53.384Z,92.00
2022-08-02T10:07:24.197Z,91.90
2022-08-02T10:09:52.246Z,91.70
2022-08-02T10:12:20.998Z,91.00
2022-08-02T10:15:02.706Z,91.30
2022-08-02T10:17:30.194Z,90.70
2022-08-02T10:20:01.873Z,90.80
2022-08-02T10:22:32.471Z,90.90
2022-08-02T10:25:02.187Z,90.70
2022-08-02T10:27:43.154Z,90.50
2022-08-02T10:30:17.567Z,90.40
2022-08-02T10:32:46.511Z,90.40
2022-08-02T10:35:25.822Z,88.90
2022-08-02T10:37:58.302Z,87.60
2022-08-02T10:40:27.141Z,85.90
2022-08-02T10:43:01.061Z,86.00
2022-08-02T10:45:28.757Z,87.10
2022-08-02T10:48:04.547Z,87.60
2022-08-02T10:50:47.053Z,88.60
2022-08-02T10:53:33.487Z,89.10
2022-08-02T10:56:02.947Z,88.30
2022-08-02T10:58:34.660Z,88.00
2022-08-02T11:01:38.690Z,86.10
2022-08-02T11:04:10.571Z,86.40
2022-08-02T11:07:06.992Z,85.90
2022-08-02T11:09:34.617Z,85.00
2022-08-02T11:12:11.247Z,84.60
2022-08-02T11:14:43.675Z,84.00
2022-08-02T11:17:19.186Z,82.20
2022-08-02T11:20:12.323Z,82.60
2022-08-02T11:22:40.493Z,82.80
2022-08-02T11:25:22.775Z,81.50
2022-08-02T11:27:50.566Z,81.20
2022-08-02T11:30:18.205Z,81.30
2022-08-02T11:32:45.535Z,81.30
2022-08-02T11:35:12.609Z,79.20
2022-08-02T11:37:45.007Z,79.20
2022-08-02T11:40:19.841Z,78.30
2022-08-02T11:42:53.827Z,77.80
2022-08-02T11:45:29.607Z,78.70
2022-08-02T11:47:57.399Z,79.00
2022-08-02T11:50:29.825Z,80.60
2022-08-02T11:52:57.947Z,80.50
2022-08-02T11:55:29.628Z,78.70
2022-08-02T11:58:05.923Z,77.60
2022-08-02T12:00:33.989Z,77.60
2022-08-02T12:03:01.568Z,78.60
2022-08-02T12:06:03.894Z,78.80
2022-08-02T12:08:19.035Z,78.40
2022-08-02T12:10:50.488Z,77.90
2022-08-02T12:13:17.569Z,77.40
2022-08-02T12:15:46.345Z,78.70
2022-08-02T12:18:37.780Z,77.50
2022-08-02T12:21:22.262Z,77.80
2022-08-02T12:23:57.122Z,76.90
2022-08-02T12:26:28.377Z,75.60
2022-08-02T12:29:00.060Z,75.90
2022-08-02T12:31:57.593Z,76.00
2022-08-02T12:34:30.068Z,75.40
2022-08-02T12:37:08.204Z,76.00
2022-08-02T12:39:36.649Z,74.90
2022-08-02T12:42:05.019Z,76.10
2022-08-02T12:44:32.789Z,76.00
2022-08-02T12:47:09.785Z,75.40
2022-08-02T12:49:37.106Z,73.90
2022-08-02T12:52:22.684Z,73.90
2022-08-02T12:54:50.266Z,74.70
2022-08-02T12:57:19.651Z,73.60
2022-08-02T12:59:53.271Z,74.60
2022-08-02T13:02:21.664Z,73.70
2022-08-02T13:04:50.056Z,73.50
2022-08-02T13:07:17.747Z,73.10
2022-08-02T13:09:46.093Z,72.80
2022-08-02T13:12:13.407Z,72.00
2022-08-02T13:14:42.822Z,72.30
2022-08-02T13:17:12.754Z,71.60
2022-08-02T13:19:41.073Z,71.80
2022-08-02T13:22:08.460Z,71.80
2022-08-02T13:24:40.055Z,71.70
2022-08-02T13:27:23.070Z,71.90
2022-08-02T13:29:51.349Z,71.40
2022-08-02T13:32:18.881Z,71.40
2022-08-02T13:34:46.233Z,70.00
2022-08-02T13:37:13.893Z,71.00
2022-08-02T13:39:40.889Z,70.80
2022-08-02T13:42:08.033Z,71.30
2022-08-02T13:44:35.782Z,71.00
2022-08-02T13:47:03.367Z,70.60
2022-08-02T13:49:38.497Z,69.10
2022-08-02T13:52:17.723Z,71.20
2022-08-02T13:54:44.989Z,70.40
2022-08-02T13:57:12.038Z,70.10
2022-08-02T13:59:56.847Z,70.40
2022-08-02T14:02:28.459Z,70.00
2022-08-02T14:04:55.962Z,70.80
2022-08-02T14:07:23.033Z,68.60
2022-08-02T14:09:50.054Z,69.50
2022-08-02T14:12:17.394Z,69.80
2022-08-02T14:14:44.659Z,69.50
2022-08-02T14:17:11.904Z,69.40
2022-08-02T14:19:39.981Z,69.20
2022-08-02T14:22:10.863Z,69.00
2022-08-02T14:24:40.174Z,68.30
2022-08-02T14:27:07.404Z,67.80
2022-08-02T14:29:34.410Z,68.60
2022-08-02T14:32:02.247Z,69.00
2022-08-02T14:34:29.767Z,67.30
2022-08-02T14:36:57.208Z,67.00
2022-08-02T14:39:24.277Z,67.70
2022-08-02T14:41:59.426Z,66.20
2022-08-02T14:44:30.607Z,68.20
2022-08-02T14:46:58.030Z,68.00
2022-08-02T14:49:26.840Z,68.20
2022-08-02T14:51:57.512Z,68.00
2022-08-02T14:54:30.426Z,68.30
2022-08-02T14:57:02.911Z,67.10
2022-08-02T14:59:30.478Z,67.90
2022-08-02T15:01:58.410Z,67.90
2022-08-02T15:04:26.023Z,67.50
2022-08-02T15:06:53.596Z,68.50
2022-08-02T15:09:21.161Z,67.50
2022-08-02T15:11:49.365Z,67.50
2022-08-02T15:14:22.175Z,67.00
2022-08-02T15:16:58.492Z,67.30
2022-08-02T15:19:56.417Z,68.60
2022-08-02T15:22:16.625Z,67.70
2022-08-02T15:24:46.276Z,67.90
2022-08-02T15:27:14.770Z,67.70
2022-08-02T15:29:43.201Z,66.90
2022-08-02T15:32:11.054Z,66.20
2022-08-02T15:34:38.556Z,66.10
2022-08-02T15:37:05.779Z,66.50
2022-08-02T15:39:32.838Z,66.20
2022-08-02T15:41:59.797Z,66.70
2022-08-02T15:44:26.769Z,66.80
2022-08-02T15:46:54.672Z,65.90
2022-08-02T15:49:25.078Z,65.50
2022-08-02T15:51:53.089Z,66.00
2022-08-02T15:54:20.340Z,66.70
2022-08-02T15:56:47.477Z,67.10
2022-08-02T15:59:14.623Z,66.80
2022-08-02T16:01:46.645Z,65.90
2022-08-02T16:04:14.965Z,65.70
2022-08-02T16:06:42.132Z,66.50
2022-08-02T16:09:09.646Z,67.00
2022-08-02T16:11:36.724Z,66.70
2022-08-02T16:14:04.085Z,66.70
2022-08-02T16:16:33.690Z,66.40
2022-08-02T16:19:38.808Z,64.60
2022-08-02T16:21:50.537Z,65.30
2022-08-02T16:24:17.618Z,65.60
2022-08-02T16:26:44.834Z,65.40
2022-08-02T16:29:12.227Z,65.40
2022-08-02T16:31:43.024Z,65.80
2022-08-02T16:34:10.600Z,66.10
2022-08-02T16:36:38.218Z,65.70
2022-08-02T16:39:05.946Z,65.80
2022-08-02T16:41:51.226Z,65.90
2022-08-02T16:44:29.670Z,66.60
2022-08-02T16:47:00.502Z,66.10
2022-08-02T16:50:07.276Z,65.70
2022-08-02T16:52:16.329Z,65.30
2022-08-02T16:54:43.371Z,65.20
2022-08-02T16:57:10.773Z,65.90
2022-08-02T16:59:44.397Z,66.10
2022-08-02T17:02:26.001Z,65.70
2022-08-02T17:04:53.107Z,66.50
2022-08-02T17:08:06.487Z,65.10
2022-08-02T17:10:09.213Z,66.30
2022-08-02T17:12:37.779Z,67.20
2022-08-02T17:16:08.065Z,66.60
2022-08-02T17:17:53.933Z,67.10
2022-08-02T17:20:21.295Z,66.90
2022-08-02T17:22:51.336Z,67.20
2022-08-02T17:25:18.505Z,66.90
2022-08-02T17:27:46.431Z,66.90
2022-08-02T17:30:15.680Z,67.20
2022-08-02T17:32:53.715Z,67.30
2022-08-02T17:35:20.731Z,67.70
2022-08-02T17:37:54.533Z,67.50
2022-08-02T17:40:27.320Z,67.60
2022-08-02T17:42:54.488Z,68.20
2022-08-02T17:45:42.198Z,69.20
2022-08-02T17:48:14.870Z,68.90
2022-08-02T17:50:42.062Z,69.30
2022-08-02T17:53:17.597Z,69.80
2022-08-02T17:55:44.686Z,69.80
2022-08-02T17:58:18.193Z,70.20
2022-08-02T18:00:45.953Z,70.50
2022-08-02T18:03:13.826Z,70.60
2022-08-02T18:05:53.532Z,70.90
2022-08-02T18:08:24.005Z,71.10
2022-08-02T18:10:55.938Z,71.40
2022-08-02T18:13:23.696Z,71.50
2022-08-02T18:15:59.187Z,71.50
2022-08-02T18:18:30.235Z,71.90
2022-08-02T18:20:58.475Z,71.90
2022-08-02T18:23:44.023Z,72.20
2022-08-02T18:26:11.482Z,72.30
2022-08-02T18:28:38.478Z,72.50
2022-08-02T18:31:22.308Z,72.70
2022-08-02T18:33:57.103Z,72.80
2022-08-02T18:36:28.197Z,73.00
2022-08-02T18:38:55.298Z,73.60
2022-08-02T18:41:22.399Z,73.90
2022-08-02T18:43:51.783Z,74.30
2022-08-02T18:46:20.033Z,74.70
2022-08-02T18:48:48.236Z,75.10
2022-08-02T18:51:19.168Z,75.60
2022-08-02T18:53:51.027Z,76.00
2022-08-02T18:56:20.223Z,76.40
2022-08-02T18:58:52.201Z,76.90
2022-08-02T19:01:31.377Z,77.10
2022-08-02T19:04:00.601Z,77.70
2022-08-02T19:06:29.142Z,78.10
2022-08-02T19:09:05.165Z,78.40
2022-08-02T19:11:34.985Z,78.90
2022-08-02T19:14:02.500Z,79.30
2022-08-02T19:16:36.009Z,79.50
2022-08-02T19:19:19.952Z,79.90
2022-08-02T19:22:15.788Z,80.40
2022-08-02T19:24:34.351Z,80.90
2022-08-02T19:27:13.212Z,81.70
2022-08-02T19:29:42.834Z,82.40
2022-08-02T19:32:42.183Z,82.70
2022-08-02T19:35:19.387Z,83.40
2022-08-02T19:37:52.525Z,83.90
2022-08-02T19:40:24.258Z,84.90
2022-08-02T19:44:25.304Z,85.40
2022-08-02T19:45:49.345Z,86.20
2022-08-02T19:48:24.329Z,86.60
2022-08-02T19:50:59.193Z,86.50
2022-08-02T19:53:29.245Z,87.40
2022-08-02T19:56:13.507Z,87.60
2022-08-02T19:58:49.879Z,87.60
2022-08-02T20:01:23.549Z,87.70
2022-08-02T20:03:55.485Z,88.10
2022-08-02T20:06:29.293Z,88.40
2022-08-02T20:09:10.981Z,88.90
2022-08-02T20:11:43.921Z,89.50
2022-08-02T20:14:11.008Z,90.00
2022-08-02T20:16:41.797Z,90.30
2022-08-02T20:19:09.089Z,90.60
2022-08-02T20:21:38.280Z,90.90
2022-08-02T20:24:11.185Z,91.40
2022-08-02T20:26:47.824Z,91.70
2022-08-02T20:29:17.489Z,92.00
2022-08-02T20:32:05.103Z,92.20
2022-08-02T20:34:33.622Z,92.20
2022-08-02T20:37:59.155Z,92.70
2022-08-02T20:39:51.570Z,92.50
2022-08-02T20:42:23.895Z,92.70
2022-08-02T20:44:55.297Z,93.10
2022-08-02T20:47:38.833Z,93.70
2022-08-02T20:50:30.389Z,93.40
2022-08-02T20:52:59.851Z,93.60
2022-08-02T20:55:27.820Z,93.50
2022-08-02T20:58:00.467Z,93.80
2022-08-02T21:00:29.804Z,93.90
2022-08-02T21:02:56.800Z,94.00
2022-08-02T21:05:43.795Z,94.20
2022-08-02T21:08:14.802Z,94.40
2022-08-02T21:10:50.262Z,94.70
2022-08-02T21:13:22.994Z,94.90
2022-08-02T21:15:53.128Z,95.00
2022-08-02T21:18:33.172Z,95.20
2022-08-02T21:21:09.864Z,95.50
2022-08-02T21:23:38.378Z,95.20
2022-08-02T21:26:12.520Z,95.60
2022-08-02T21:28:44.908Z,95.70
2022-08-02T21:31:15.893Z,96.10
2022-08-02T21:33:57.147Z,96.20
2022-08-02T21:36:31.419Z,96.40
2022-08-02T21:39:05.081Z,96.70
2022-08-02T21:41:39.720Z,96.90
2022-08-02T21:44:15.589Z,97.20
2022-08-02T21:46:49.557Z,97.40
2022-08-02T21:49:27.406Z,97.40
2022-08-02T21:52:10.834Z,97.40
2022-08-02T21:54:40.116Z,97.40
2022-08-02T21:57:15.795Z,97.90
2022-08-02T21:59:47.446Z,97.80
2022-08-02T22:02:15.990Z,98.00
2022-08-02T22:04:47.951Z,98.30
2022-08-02T22:07:23.895Z,98.20
2022-08-02T22:09:52.606Z,98.40
2022-08-02T22:12:20.738Z,98.50
2022-08-02T22:14:55.672Z,98.70
2022-08-02T22:17:49.841Z,98.90
2022-08-02T22:20:15.539Z,99.00
2022-08-02T22:22:45.705Z,99.10
2022-08-02T22:25:31.038Z,99.20
2022-08-02T22:28:38.286Z,99.40
2022-08-02T22:30:51.152Z,99.60
2022-08-02T22:33:42.558Z,99.60
2022-08-02T22:36:15.552Z,99.60
2022-08-02T22:38:46.631Z,99.50
2022-08-02T22:41:14.417Z,99.70
2022-08-02T22:43:42.632Z,99.70
2022-08-02T22:46:15.394Z,99.90
2022-08-02T22:48:44.342Z,99.90
2022-08-02T22:51:13.387Z,99.90
2022-08-02T22:53:42.104Z,99.90
2022-08-02T22:56:10.020Z,99.90
2022-08-02T22:59:05.697Z,99.90
2022-08-02T23:01:24.564Z,99.90
2022-08-02T23:03:51.681Z,99.90
2022-08-02T23:06:22.678Z,99.90
2022-08-02T23:08:50.284Z,99.90
2022-08-02T23:11:17.469Z,99.90
2022-08-02T23:13:44.445Z,99.90
2022-08-02T23:16:30.102Z,99.90
2022-08-02T23:19:15.942Z,99.90
2022-08-02T23:22:01.115Z,99.90
2022-08-02T23:24:30.678Z,99.90
2022-08-02T23:26:57.693Z,99.90
2022-08-02T23:29:24.755Z,99.90
2022-08-02T23:31:51.755Z,99.90
2022-08-02T23:34:20.023Z,99.90
2022-08-02T23:36:47.026Z,99.90
2022-08-02T23:39:14.131Z,99.90
2022-08-02T23:41:41.342Z,99.90
2022-08-02T23:44:14.241Z,99.90
2022-08-02T23:46:46.419Z,99.90
2022-08-02T23:49:14.534Z,99.90
2022-08-02T23:51:41.753Z,99.90
2022-08-02T23:54:09.867Z,99.90
2022-08-02T23:56:37.422Z,99.90
2022-08-02T23:59:05.451Z,99.90
